Time;durP1;ratioP1;P1;durP2;ratioP2;P2;SDS_P1;SDS_P2;PMS_P1;PMS_P2;Temp;Humidity;BMP_temperature;BMP_pressure;BME280_temperature;BME280_humidity;BME280_pressure;Samples;Min_cycle;Max_cycle;Signal;HPM_P1;HPM_P2
2022/10/21 00:02:24;;;;;;;21.42;14.48;;;;;;;;;;4935381;29;20032;-71
2022/10/21 00:04:50;;;;;;;29.55;15.75;;;;;;;;;;4935117;29;20119;-68
2022/10/21 00:07:15;;;;;;;26.48;16.17;;;;;;;;;;4952775;28;20063;-70
2022/10/21 00:09:41;;;;;;;23.63;15.88;;;;;;;;;;4953670;28;20038;-68
2022/10/21 00:12:07;;;;;;;25.55;15.05;;;;;;;;;;4954341;28;20042;-68
2022/10/21 00:14:33;;;;;;;24.65;16.30;;;;;;;;;;4948124;28;20071;-68
2022/10/21 00:16:59;;;;;;;27.63;17.00;;;;;;;;;;4950234;28;20046;-68
2022/10/21 00:19:25;;;;;;;22.83;16.38;;;;;;;;;;4953850;29;20039;-70
2022/10/21 00:21:50;;;;;;;25.85;17.50;;;;;;;;;;4953624;28;20076;-68
2022/10/21 00:24:16;;;;;;;23.75;16.45;;;;;;;;;;4954010;29;20035;-66
2022/10/21 00:26:42;;;;;;;23.65;16.35;;;;;;;;;;4954090;28;20038;-68
2022/10/21 00:29:09;;;;;;;19.05;14.82;;;;;;;;;;4949282;29;20079;-68
2022/10/21 00:31:35;;;;;;;23.52;14.90;;;;;;;;;;4946252;28;20040;-68
2022/10/21 00:34:01;;;;;;;23.75;15.25;;;;;;;;;;4953963;29;20126;-68
2022/10/21 00:36:27;;;;;;;22.17;14.55;;;;;;;;;;4954137;28;20101;-69
2022/10/21 00:38:53;;;;;;;19.08;14.52;;;;;;;;;;4947334;29;20058;-71
2022/10/21 00:41:19;;;;;;;22.13;14.52;;;;;;;;;;4940505;28;20040;-67
2022/10/21 00:44:00;;;;;;;21.77;13.63;;;;;;;;;;4942641;29;20364;-68
2022/10/21 00:46:58;;;;;;;20.60;14.43;;;;;;;;;;4952079;28;20031;-69
2022/10/21 00:49:42;;;;;;;22.13;14.93;;;;;;;;;;4953409;28;20035;-68
2022/10/21 00:52:14;;;;;;;22.95;14.88;;;;;;;;;;4953643;28;20446;-68
2022/10/21 00:54:42;;;;;;;21.15;14.75;;;;;;;;;;4954531;28;20057;-71
2022/10/21 00:57:09;;;;;;;18.88;13.88;;;;;;;;;;4957927;28;20024;-68
2022/10/21 00:59:49;;;;;;;21.60;14.23;;;;;;;;;;4951391;28;20143;-68
2022/10/21 01:02:15;;;;;;;21.92;13.93;;;;;;;;;;4953389;28;20042;-68
2022/10/21 01:04:41;;;;;;;26.02;14.95;;;;;;;;;;4957612;28;20118;-68
2022/10/21 01:07:08;;;;;;;20.90;13.55;;;;;;;;;;4957390;28;20046;-69
2022/10/21 01:09:34;;;;;;;21.63;14.05;;;;;;;;;;4941524;28;20479;-68
2022/10/21 01:12:01;;;;;;;19.80;13.93;;;;;;;;;;4950342;28;20122;-68
2022/10/21 01:14:42;;;;;;;20.48;14.95;;;;;;;;;;4952236;28;20035;-68
2022/10/21 01:17:45;;;;;;;25.10;14.18;;;;;;;;;;4951345;28;20470;-69
2022/10/21 01:20:19;;;;;;;22.88;14.63;;;;;;;;;;4957164;29;20085;-68
2022/10/21 01:23:26;;;;;;;21.08;14.75;;;;;;;;;;4956947;28;20059;-68
2022/10/21 01:26:29;;;;;;;21.10;14.50;;;;;;;;;;4902664;29;20138;-69
2022/10/21 01:29:26;;;;;;;22.25;14.02;;;;;;;;;;4951008;29;20044;-69
2022/10/21 01:32:11;;;;;;;20.55;13.18;;;;;;;;;;4948234;28;20031;-70
2022/10/21 01:34:58;;;;;;;22.33;13.95;;;;;;;;;;4957255;28;20093;-68
2022/10/21 01:37:50;;;;;;;23.67;14.05;;;;;;;;;;4957030;28;20046;-70
2022/10/21 01:40:36;;;;;;;21.73;15.18;;;;;;;;;;4950525;29;20044;-67
2022/10/21 01:43:19;;;;;;;22.40;14.93;;;;;;;;;;4956911;28;20438;-68
2022/10/21 01:45:53;;;;;;;24.20;14.47;;;;;;;;;;4941825;28;20036;-68
2022/10/21 01:48:27;;;;;;;22.45;14.23;;;;;;;;;;4960911;28;20045;-69
2022/10/21 01:50:58;;;;;;;23.60;14.20;;;;;;;;;;4973980;28;20066;-69
2022/10/21 01:53:29;;;;;;;21.30;13.73;;;;;;;;;;4956346;29;20095;-68
2022/10/21 01:55:58;;;;;;;24.30;14.13;;;;;;;;;;4955330;28;20356;-71
2022/10/21 01:58:28;;;;;;;26.45;14.82;;;;;;;;;;4945734;28;20090;-67
2022/10/21 02:00:57;;;;;;;23.05;14.02;;;;;;;;;;4937523;28;20110;-68
2022/10/21 02:03:27;;;;;;;24.02;15.13;;;;;;;;;;4952828;28;20490;-68
2022/10/21 02:05:53;;;;;;;22.95;14.25;;;;;;;;;;4954752;28;20094;-70
2022/10/21 02:08:19;;;;;;;21.77;14.82;;;;;;;;;;4954878;29;20051;-70
2022/10/21 02:10:49;;;;;;;23.25;16.00;;;;;;;;;;4955563;29;20367;-68
2022/10/21 02:13:21;;;;;;;28.77;15.80;;;;;;;;;;4974516;28;20023;-70
2022/10/21 02:15:48;;;;;;;23.30;14.63;;;;;;;;;;4942958;28;20039;-68
2022/10/21 02:18:20;;;;;;;21.55;14.13;;;;;;;;;;4941307;28;20110;-68
2022/10/21 02:20:52;;;;;;;20.02;14.13;;;;;;;;;;4975207;28;20031;-67
2022/10/21 02:23:22;;;;;;;23.90;14.90;;;;;;;;;;4975115;28;20047;-67
2022/10/21 02:25:50;;;;;;;20.80;14.13;;;;;;;;;;4973933;28;20558;-67
2022/10/21 02:28:17;;;;;;;22.10;14.10;;;;;;;;;;4959829;28;20027;-66
2022/10/21 02:30:55;;;;;;;21.92;14.32;;;;;;;;;;4955590;28;20035;-70
2022/10/21 02:33:48;;;;;;;24.17;15.05;;;;;;;;;;4955698;29;20031;-68
2022/10/21 02:36:46;;;;;;;25.67;15.38;;;;;;;;;;4944918;28;20051;-66
2022/10/21 02:39:30;;;;;;;26.98;15.48;;;;;;;;;;4955503;28;20074;-67
2022/10/21 02:41:58;;;;;;;23.50;15.00;;;;;;;;;;4955375;28;20082;-66
2022/10/21 02:44:25;;;;;;;23.77;15.75;;;;;;;;;;4955901;29;20038;-66
2022/10/21 02:46:51;;;;;;;23.58;14.52;;;;;;;;;;4955772;28;20055;-66
2022/10/21 02:49:17;;;;;;;25.15;15.05;;;;;;;;;;4948756;29;20038;-67
2022/10/21 02:51:44;;;;;;;26.85;14.73;;;;;;;;;;4936529;29;20047;-67
2022/10/21 02:54:10;;;;;;;24.58;14.80;;;;;;;;;;4936414;29;20031;-68
2022/10/21 02:56:36;;;;;;;18.77;13.73;;;;;;;;;;4935374;29;20497;-67
2022/10/21 02:59:02;;;;;;;22.88;14.23;;;;;;;;;;4955228;29;20039;-68
2022/10/21 03:01:28;;;;;;;25.98;15.93;;;;;;;;;;4955198;29;20046;-68
2022/10/21 03:03:54;;;;;;;22.55;14.93;;;;;;;;;;4955184;29;20055;-69
2022/10/21 03:06:19;;;;;;;25.35;15.75;;;;;;;;;;4955366;29;20394;-66
2022/10/21 03:08:45;;;;;;;22.35;14.25;;;;;;;;;;4955277;29;20040;-67
2022/10/21 03:11:12;;;;;;;24.77;14.70;;;;;;;;;;4955461;29;20031;-67
2022/10/21 03:13:37;;;;;;;26.15;15.70;;;;;;;;;;4955249;29;20090;-66
2022/10/21 03:16:03;;;;;;;30.00;18.63;;;;;;;;;;4955340;29;20027;-66
2022/10/21 03:18:29;;;;;;;28.67;15.30;;;;;;;;;;4945577;28;20023;-69
2022/10/21 03:20:55;;;;;;;33.22;16.60;;;;;;;;;;4939515;29;20027;-67
2022/10/21 03:23:22;;;;;;;38.58;17.83;;;;;;;;;;4954471;28;20051;-67
2022/10/21 03:25:47;;;;;;;31.13;16.77;;;;;;;;;;4954866;29;20095;-66
2022/10/21 03:28:16;;;;;;;27.50;17.00;;;;;;;;;;4955143;28;20039;-66
2022/10/21 03:30:42;;;;;;;28.95;16.45;;;;;;;;;;4954944;29;20395;-67
2022/10/21 03:33:08;;;;;;;26.75;15.88;;;;;;;;;;4954579;28;20031;-68
2022/10/21 03:35:34;;;;;;;27.08;15.23;;;;;;;;;;4954596;29;20091;-66
2022/10/21 03:38:00;;;;;;;21.10;14.02;;;;;;;;;;4954535;29;20092;-67
2022/10/21 03:40:29;;;;;;;23.38;16.15;;;;;;;;;;4954336;28;20038;-66
2022/10/21 03:42:56;;;;;;;26.13;15.52;;;;;;;;;;4954156;28;20046;-68
2022/10/21 03:45:22;;;;;;;20.10;13.90;;;;;;;;;;4950714;28;20027;-69
2022/10/21 03:47:48;;;;;;;26.73;15.23;;;;;;;;;;4939327;29;20027;-67
2022/10/21 03:50:14;;;;;;;25.83;15.38;;;;;;;;;;4942185;28;20070;-69
2022/10/21 03:52:39;;;;;;;27.05;15.23;;;;;;;;;;4953167;28;20123;-67
2022/10/21 03:55:06;;;;;;;23.23;16.27;;;;;;;;;;4954598;28;20035;-66
2022/10/21 03:57:32;;;;;;;22.42;14.45;;;;;;;;;;4954238;28;20050;-67
2022/10/21 03:59:58;;;;;;;20.83;14.73;;;;;;;;;;4954680;28;20542;-69
2022/10/21 04:02:23;;;;;;;20.58;14.32;;;;;;;;;;4953172;28;20043;-66
2022/10/21 04:04:49;;;;;;;24.05;13.35;;;;;;;;;;4953202;28;20494;-67
2022/10/21 04:07:15;;;;;;;22.30;13.50;;;;;;;;;;4954792;28;20071;-66
2022/10/21 04:09:41;;;;;;;23.95;15.00;;;;;;;;;;4954592;28;20039;-66
2022/10/21 04:12:07;;;;;;;28.95;15.45;;;;;;;;;;4954927;29;20070;-67
2022/10/21 04:14:33;;;;;;;19.50;13.15;;;;;;;;;;4954509;28;20101;-67
2022/10/21 04:16:59;;;;;;;32.17;14.23;;;;;;;;;;4943904;28;20031;-69
2022/10/21 04:19:24;;;;;;;28.77;15.05;;;;;;;;;;4940138;29;20054;-69
2022/10/21 04:21:50;;;;;;;23.45;15.13;;;;;;;;;;4947438;29;20120;-67
2022/10/21 04:24:16;;;;;;;26.70;15.02;;;;;;;;;;4940798;28;20059;-68
2022/10/21 04:26:42;;;;;;;21.90;15.50;;;;;;;;;;4935172;29;20130;-69
2022/10/21 04:29:08;;;;;;;22.52;15.15;;;;;;;;;;4934582;29;20475;-68
2022/10/21 04:31:34;;;;;;;30.63;16.00;;;;;;;;;;4935121;29;20074;-66
2022/10/21 04:34:00;;;;;;;23.52;14.68;;;;;;;;;;4935235;29;20063;-67
2022/10/21 04:36:26;;;;;;;23.10;14.60;;;;;;;;;;4942369;29;20118;-69
2022/10/21 04:38:52;;;;;;;27.48;15.45;;;;;;;;;;4954286;28;20023;-70
2022/10/21 04:41:17;;;;;;;35.28;16.30;;;;;;;;;;4954062;29;20074;-68
2022/10/21 04:43:43;;;;;;;30.08;16.13;;;;;;;;;;4954211;29;20031;-68
2022/10/21 04:46:12;;;;;;;24.13;15.10;;;;;;;;;;4954298;28;20394;-74
2022/10/21 04:48:39;;;;;;;23.60;14.40;;;;;;;;;;4940735;28;20388;-67
2022/10/21 04:51:05;;;;;;;28.67;15.02;;;;;;;;;;4937733;29;20059;-68
2022/10/21 04:53:31;;;;;;;29.10;15.15;;;;;;;;;;4946043;28;20035;-69
2022/10/21 04:55:57;;;;;;;26.80;16.65;;;;;;;;;;4934635;29;20431;-71
2022/10/21 04:58:23;;;;;;;22.30;14.75;;;;;;;;;;4934603;29;20030;-70
2022/10/21 05:00:50;;;;;;;29.60;14.70;;;;;;;;;;4934400;29;20036;-70
2022/10/21 05:03:16;;;;;;;26.42;15.50;;;;;;;;;;4934609;29;20035;-66
2022/10/21 05:05:42;;;;;;;31.33;16.20;;;;;;;;;;4934457;29;20109;-67
2022/10/21 05:08:08;;;;;;;24.98;15.32;;;;;;;;;;4934510;29;20147;-67
2022/10/21 05:10:34;;;;;;;25.02;14.73;;;;;;;;;;4934665;29;20047;-66
2022/10/21 05:13:00;;;;;;;37.55;16.23;;;;;;;;;;4934381;29;20043;-66
2022/10/21 05:15:26;;;;;;;27.27;16.02;;;;;;;;;;4934422;29;20043;-66
2022/10/21 05:17:52;;;;;;;28.92;15.88;;;;;;;;;;4934408;29;20082;-68
2022/10/21 05:20:18;;;;;;;30.05;15.45;;;;;;;;;;4938014;29;20023;-68
2022/10/21 05:22:44;;;;;;;29.48;16.00;;;;;;;;;;4953247;28;20110;-66
2022/10/21 05:25:10;;;;;;;28.33;15.30;;;;;;;;;;4945900;29;20402;-67
2022/10/21 05:27:36;;;;;;;35.28;18.00;;;;;;;;;;4934240;29;20143;-68
2022/10/21 05:30:04;;;;;;;29.23;17.13;;;;;;;;;;4934360;29;20536;-67
2022/10/21 05:32:29;;;;;;;35.20;17.13;;;;;;;;;;4934562;29;20503;-67
2022/10/21 05:34:55;;;;;;;34.17;17.20;;;;;;;;;;4934403;29;20040;-66
2022/10/21 05:37:21;;;;;;;42.85;20.02;;;;;;;;;;4934305;29;20092;-66
2022/10/21 05:39:47;;;;;;;36.35;16.52;;;;;;;;;;4933857;29;20041;-66
2022/10/21 05:42:13;;;;;;;28.27;17.00;;;;;;;;;;4936744;29;20032;-67
2022/10/21 05:44:38;;;;;;;24.98;15.40;;;;;;;;;;4937381;29;20441;-67
2022/10/21 05:47:04;;;;;;;28.58;15.75;;;;;;;;;;4941058;29;20438;-67
2022/10/21 05:49:30;;;;;;;29.95;16.20;;;;;;;;;;4947867;29;20063;-66
2022/10/21 05:51:56;;;;;;;28.20;15.48;;;;;;;;;;4956928;28;20110;-67
2022/10/21 05:54:22;;;;;;;26.80;15.25;;;;;;;;;;4947583;28;20044;-66
2022/10/21 05:56:48;;;;;;;29.55;16.25;;;;;;;;;;4946177;28;20046;-66
2022/10/21 05:59:14;;;;;;;24.38;14.98;;;;;;;;;;4944902;29;20024;-67
2022/10/21 06:01:40;;;;;;;23.67;14.15;;;;;;;;;;4943827;28;20031;-67
2022/10/21 06:04:06;;;;;;;31.60;14.80;;;;;;;;;;4956732;29;20047;-66
2022/10/21 06:06:32;;;;;;;29.83;15.75;;;;;;;;;;4955402;28;20537;-66
2022/10/21 06:08:58;;;;;;;30.67;14.43;;;;;;;;;;4955322;29;20031;-66
2022/10/21 06:11:24;;;;;;;28.75;15.30;;;;;;;;;;4956808;28;20471;-67
2022/10/21 06:13:49;;;;;;;23.00;14.02;;;;;;;;;;4956574;28;20434;-66
2022/10/21 06:16:16;;;;;;;34.83;14.68;;;;;;;;;;4956607;28;20111;-65
2022/10/21 06:18:43;;;;;;;22.33;14.52;;;;;;;;;;4942596;28;20036;-66
2022/10/21 06:21:09;;;;;;;21.10;13.50;;;;;;;;;;4937539;29;20386;-67
2022/10/21 06:23:35;;;;;;;29.95;16.58;;;;;;;;;;4954754;28;20042;-66
2022/10/21 06:26:04;;;;;;;23.27;14.27;;;;;;;;;;4972053;28;20043;-66
2022/10/21 06:28:33;;;;;;;29.48;16.27;;;;;;;;;;4956140;28;20118;-72
2022/10/21 06:30:59;;;;;;;29.65;15.05;;;;;;;;;;4954453;28;20130;-70
2022/10/21 06:33:25;;;;;;;25.75;15.63;;;;;;;;;;4955623;29;20122;-65
2022/10/21 06:35:51;;;;;;;35.28;15.98;;;;;;;;;;4955625;28;20035;-66
2022/10/21 06:38:17;;;;;;;29.77;15.90;;;;;;;;;;4955778;29;20089;-71
2022/10/21 06:40:43;;;;;;;30.73;15.90;;;;;;;;;;4955373;29;20034;-68
2022/10/21 06:43:10;;;;;;;28.92;14.98;;;;;;;;;;4956027;28;20031;-71
2022/10/21 06:45:36;;;;;;;27.90;14.45;;;;;;;;;;4956139;28;20446;-66
2022/10/21 06:48:02;;;;;;;35.53;15.65;;;;;;;;;;4955776;28;20036;-66
2022/10/21 06:50:28;;;;;;;26.10;15.50;;;;;;;;;;4955307;29;20441;-67
2022/10/21 06:52:54;;;;;;;24.63;15.57;;;;;;;;;;4952717;28;20027;-65
2022/10/21 06:55:20;;;;;;;48.88;17.95;;;;;;;;;;4955710;28;20035;-65
2022/10/21 06:57:46;;;;;;;28.48;16.40;;;;;;;;;;4955231;28;20035;-67
2022/10/21 07:00:13;;;;;;;27.27;15.68;;;;;;;;;;4955093;29;20031;-65
2022/10/21 07:02:40;;;;;;;35.05;15.07;;;;;;;;;;4955145;28;20050;-67
2022/10/21 07:05:06;;;;;;;38.38;14.90;;;;;;;;;;4955055;28;20034;-68
2022/10/21 07:07:32;;;;;;;22.33;14.05;;;;;;;;;;4955316;29;20039;-66
2022/10/21 07:09:58;;;;;;;25.90;14.85;;;;;;;;;;4955397;28;20086;-67
2022/10/21 07:12:24;;;;;;;24.38;14.93;;;;;;;;;;4951286;29;20043;-75
2022/10/21 07:14:50;;;;;;;22.90;13.00;;;;;;;;;;4942632;29;20036;-71
2022/10/21 07:17:17;;;;;;;26.63;13.55;;;;;;;;;;4944500;28;20020;-75
2022/10/21 07:19:43;;;;;;;21.45;13.30;;;;;;;;;;4947693;29;20145;-66
2022/10/21 07:22:08;;;;;;;22.33;14.00;;;;;;;;;;4954253;29;20139;-70
2022/10/21 07:24:35;;;;;;;23.15;13.25;;;;;;;;;;4939170;28;20027;-65
2022/10/21 07:27:01;;;;;;;19.55;13.73;;;;;;;;;;4936206;29;20391;-66
2022/10/21 07:29:27;;;;;;;20.60;12.48;;;;;;;;;;4937357;29;20391;-66
2022/10/21 07:31:53;;;;;;;25.60;12.65;;;;;;;;;;4950507;28;20107;-67
2022/10/21 07:34:19;;;;;;;20.60;13.77;;;;;;;;;;4942612;29;20122;-66
2022/10/21 07:36:48;;;;;;;23.80;13.98;;;;;;;;;;4944081;28;20439;-67
2022/10/21 07:39:16;;;;;;;21.67;13.90;;;;;;;;;;4945194;28;20454;-65
2022/10/21 07:41:45;;;;;;;24.20;12.65;;;;;;;;;;4944465;29;20028;-66
2022/10/21 07:44:12;;;;;;;19.23;12.60;;;;;;;;;;4943702;28;20067;-66
2022/10/21 07:46:39;;;;;;;24.50;12.75;;;;;;;;;;4944758;28;20164;-68
2022/10/21 07:49:06;;;;;;;28.77;13.50;;;;;;;;;;4944920;29;20027;-67
2022/10/21 07:51:31;;;;;;;22.80;12.73;;;;;;;;;;4943109;28;20520;-66
2022/10/21 07:53:59;;;;;;;25.52;13.63;;;;;;;;;;4944869;28;20062;-72
2022/10/21 07:56:28;;;;;;;24.70;13.43;;;;;;;;;;4940473;29;20027;-71
2022/10/21 07:58:54;;;;;;;38.20;14.40;;;;;;;;;;4942446;28;20046;-72
2022/10/21 08:01:20;;;;;;;24.58;13.65;;;;;;;;;;4944558;28;20035;-65
2022/10/21 08:03:46;;;;;;;21.83;13.80;;;;;;;;;;4945146;29;20040;-67
2022/10/21 08:06:15;;;;;;;23.40;13.40;;;;;;;;;;4942594;28;20091;-69
2022/10/21 08:08:41;;;;;;;28.58;15.18;;;;;;;;;;4943740;28;20316;-69
2022/10/21 08:11:08;;;;;;;32.08;17.80;;;;;;;;;;4935508;28;20062;-70
2022/10/21 08:13:34;;;;;;;33.45;17.00;;;;;;;;;;4945853;28;20027;-68
2022/10/21 08:16:01;;;;;;;39.80;19.58;;;;;;;;;;4953623;28;20038;-70
2022/10/21 08:18:27;;;;;;;39.13;20.42;;;;;;;;;;4952166;28;20038;-68
2022/10/21 08:20:53;;;;;;;44.42;21.45;;;;;;;;;;4941179;28;20070;-68
2022/10/21 08:23:21;;;;;;;45.40;22.08;;;;;;;;;;4952690;28;20058;-70
2022/10/21 08:25:56;;;;;;;33.75;19.00;;;;;;;;;;4952347;28;20039;-68
2022/10/21 08:28:25;;;;;;;31.58;17.50;;;;;;;;;;4948710;28;20056;-67
2022/10/21 08:30:51;;;;;;;24.42;15.15;;;;;;;;;;4940921;28;20032;-66
2022/10/21 08:33:18;;;;;;;24.17;15.48;;;;;;;;;;4940150;28;20594;-68
2022/10/21 08:35:44;;;;;;;29.13;16.40;;;;;;;;;;4943771;29;20445;-68
2022/10/21 08:38:10;;;;;;;35.47;16.90;;;;;;;;;;4940896;29;20051;-68
2022/10/21 08:40:45;;;;;;;30.50;16.52;;;;;;;;;;4944515;28;20027;-66
2022/10/21 08:43:24;;;;;;;32.83;17.55;;;;;;;;;;4944472;29;20475;-66
2022/10/21 08:45:59;;;;;;;25.75;16.80;;;;;;;;;;4944627;29;20037;-67
2022/10/21 08:48:32;;;;;;;30.15;15.57;;;;;;;;;;4942397;28;20028;-69
2022/10/21 08:50:59;;;;;;;26.38;14.80;;;;;;;;;;4943058;28;20063;-67
2022/10/21 08:53:39;;;;;;;25.90;13.95;;;;;;;;;;4944644;29;20494;-69
2022/10/21 08:56:11;;;;;;;21.55;14.60;;;;;;;;;;4944261;29;20039;-68
2022/10/21 08:58:37;;;;;;;24.50;13.98;;;;;;;;;;4943568;28;20086;-67
2022/10/21 09:01:11;;;;;;;23.05;13.98;;;;;;;;;;4941291;29;20044;-69
2022/10/21 09:03:43;;;;;;;23.52;14.20;;;;;;;;;;4941710;28;20547;-67
2022/10/21 09:06:18;;;;;;;30.30;14.80;;;;;;;;;;4943985;29;20509;-70
2022/10/21 09:08:53;;;;;;;29.17;14.23;;;;;;;;;;4944378;29;20070;-67
2022/10/21 09:11:40;;;;;;;20.23;13.15;;;;;;;;;;4943490;29;20043;-71
2022/10/21 09:14:37;;;;;;;24.35;14.30;;;;;;;;;;4944354;29;20042;-67
2022/10/21 09:17:22;;;;;;;25.05;13.80;;;;;;;;;;4946944;29;20043;-68
2022/10/21 09:20:02;;;;;;;18.30;12.57;;;;;;;;;;4947808;29;20042;-72
2022/10/21 09:22:54;;;;;;;25.65;13.80;;;;;;;;;;4947258;29;20054;-72
2022/10/21 09:25:33;;;;;;;24.17;13.60;;;;;;;;;;4947151;29;20039;-72
2022/10/21 09:28:06;;;;;;;28.48;17.33;;;;;;;;;;4945588;29;20031;-69
2022/10/21 09:30:33;;;;;;;26.67;16.45;;;;;;;;;;4946273;29;20089;-72
2022/10/21 09:32:59;;;;;;;29.42;16.27;;;;;;;;;;4947647;29;20386;-67
2022/10/21 09:35:38;;;;;;;30.13;17.67;;;;;;;;;;4947799;29;20380;-69
2022/10/21 09:38:34;;;;;;;24.08;15.30;;;;;;;;;;4943034;28;20534;-68
2022/10/21 09:41:02;;;;;;;22.15;12.77;;;;;;;;;;4951566;29;20039;-70
2022/10/21 09:43:29;;;;;;;21.02;13.85;;;;;;;;;;4951735;29;20360;-71
2022/10/21 09:45:56;;;;;;;21.80;15.20;;;;;;;;;;4962404;28;20494;-67
2022/10/21 09:48:27;;;;;;;21.77;14.60;;;;;;;;;;4974318;28;20050;-71
2022/10/21 09:51:05;;;;;;;24.30;14.15;;;;;;;;;;4957437;28;20093;-69
2022/10/21 09:53:36;;;;;;;23.13;13.27;;;;;;;;;;4954154;28;20035;-70
2022/10/21 09:56:28;;;;;;;16.27;11.63;;;;;;;;;;4955072;28;20071;-73
2022/10/21 09:59:04;;;;;;;20.90;11.70;;;;;;;;;;4947588;28;20319;-70
2022/10/21 10:01:31;;;;;;;17.63;11.20;;;;;;;;;;4951031;29;20039;-71
2022/10/21 10:03:57;;;;;;;16.73;11.07;;;;;;;;;;4935805;28;20550;-72
2022/10/21 10:06:38;;;;;;;17.70;10.77;;;;;;;;;;4940660;29;20032;-69
2022/10/21 10:09:24;;;;;;;18.83;11.05;;;;;;;;;;4939265;29;20062;-69
2022/10/21 10:11:53;;;;;;;18.35;9.50;;;;;;;;;;4943818;29;20035;-72
2022/10/21 10:14:32;;;;;;;15.75;10.48;;;;;;;;;;4942998;28;20039;-67
2022/10/21 10:17:28;;;;;;;20.70;12.60;;;;;;;;;;4943470;29;20039;-72
2022/10/21 10:20:10;;;;;;;18.65;10.38;;;;;;;;;;4945999;29;20467;-69
2022/10/21 10:22:44;;;;;;;18.15;9.90;;;;;;;;;;4942907;29;20055;-66
2022/10/21 10:25:21;;;;;;;20.73;11.10;;;;;;;;;;4943881;29;20482;-67
2022/10/21 10:27:52;;;;;;;17.42;10.25;;;;;;;;;;4941681;28;20047;-68
2022/10/21 10:30:19;;;;;;;17.20;10.00;;;;;;;;;;4942836;29;20030;-70
2022/10/21 10:32:47;;;;;;;14.70;9.05;;;;;;;;;;4945438;28;20027;-71
2022/10/21 10:35:46;;;;;;;25.73;10.20;;;;;;;;;;4946229;29;20023;-67
2022/10/21 10:38:38;;;;;;;18.70;9.63;;;;;;;;;;4939944;29;20070;-68
2022/10/21 10:41:10;;;;;;;12.25;8.23;;;;;;;;;;4938115;28;20039;-71
2022/10/21 10:43:52;;;;;;;11.18;7.75;;;;;;;;;;4951503;28;20046;-67
2022/10/21 10:46:35;;;;;;;16.27;8.20;;;;;;;;;;4951897;29;20062;-69
2022/10/21 10:49:14;;;;;;;9.38;6.70;;;;;;;;;;4955177;28;20118;-70
2022/10/21 10:51:41;;;;;;;12.35;6.30;;;;;;;;;;4955091;29;20134;-72
2022/10/21 10:54:22;;;;;;;13.63;6.78;;;;;;;;;;4954313;28;20100;-70
2022/10/21 10:56:48;;;;;;;10.75;6.88;;;;;;;;;;4955302;28;20039;-68
2022/10/21 10:59:14;;;;;;;11.38;6.10;;;;;;;;;;4954722;28;20030;-74
2022/10/21 11:02:12;;;;;;;15.40;6.80;;;;;;;;;;4953438;28;20068;-69
2022/10/21 11:05:02;;;;;;;14.90;6.65;;;;;;;;;;4952749;28;20031;-73
2022/10/21 11:07:42;;;;;;;11.38;6.00;;;;;;;;;;4951767;28;20038;-67
2022/10/21 11:10:19;;;;;;;8.95;6.05;;;;;;;;;;4953266;28;20043;-72
2022/10/21 11:12:45;;;;;;;12.98;7.10;;;;;;;;;;4953298;28;20047;-71
2022/10/21 11:15:13;;;;;;;11.85;6.70;;;;;;;;;;4953691;29;20039;-67
2022/10/21 11:17:48;;;;;;;10.18;6.30;;;;;;;;;;4955107;28;20106;-69
2022/10/21 11:20:26;;;;;;;11.73;6.15;;;;;;;;;;4955264;29;20027;-67
2022/10/21 11:23:13;;;;;;;12.00;6.05;;;;;;;;;;4955097;28;20054;-73
2022/10/21 11:25:46;;;;;;;10.68;6.22;;;;;;;;;;4955183;28;20039;-71
2022/10/21 11:28:48;;;;;;;11.18;6.45;;;;;;;;;;4955006;28;20106;-74
2022/10/21 11:31:23;;;;;;;12.25;7.07;;;;;;;;;;4954331;28;20043;-76
2022/10/21 11:34:24;;;;;;;13.45;6.45;;;;;;;;;;4954575;29;20035;-69
2022/10/21 11:37:23;;;;;;;12.65;6.45;;;;;;;;;;4944790;28;20443;-71
2022/10/21 11:40:00;;;;;;;14.98;9.13;;;;;;;;;;4954211;28;20039;-74
2022/10/21 11:42:32;;;;;;;10.43;6.10;;;;;;;;;;4953077;29;20035;-76
2022/10/21 11:45:24;;;;;;;9.88;5.75;;;;;;;;;;4953872;28;20391;-70
2022/10/21 11:48:02;;;;;;;15.75;6.22;;;;;;;;;;4926540;28;20053;-69
2022/10/21 11:50:46;;;;;;;11.88;5.90;;;;;;;;;;4954537;28;20035;-70
2022/10/21 11:53:40;;;;;;;13.23;6.15;;;;;;;;;;4954544;28;20137;-70
2022/10/21 11:56:32;;;;;;;12.27;6.35;;;;;;;;;;4953101;28;20478;-71
2022/10/21 11:59:20;;;;;;;12.18;6.30;;;;;;;;;;4951139;29;20043;-69
2022/10/21 12:01:48;;;;;;;13.45;5.90;;;;;;;;;;4953763;29;20035;-68
2022/10/21 12:04:20;;;;;;;15.93;6.28;;;;;;;;;;4953606;28;20019;-70
2022/10/21 12:07:03;;;;;;;22.75;13.25;;;;;;;;;;4953955;28;20035;-69
2022/10/21 12:10:00;;;;;;;18.67;11.55;;;;;;;;;;4954101;29;20059;-70
2022/10/21 12:12:33;;;;;;;11.23;6.78;;;;;;;;;;4953773;29;20519;-68
2022/10/21 12:15:10;;;;;;;13.27;8.10;;;;;;;;;;4954714;29;20536;-71
2022/10/21 12:17:36;;;;;;;11.68;6.68;;;;;;;;;;4954472;29;20110;-69
2022/10/21 12:20:10;;;;;;;13.98;6.93;;;;;;;;;;4954773;28;20096;-76
2022/10/21 12:22:38;;;;;;;9.73;6.18;;;;;;;;;;4954346;28;20553;-73
2022/10/21 12:25:22;;;;;;;17.48;7.38;;;;;;;;;;4954545;29;20039;-68
2022/10/21 12:28:00;;;;;;;10.30;6.95;;;;;;;;;;4954138;29;20035;-69
2022/10/21 12:30:42;;;;;;;11.15;6.10;;;;;;;;;;4953785;28;20394;-68
2022/10/21 12:33:35;;;;;;;15.13;8.38;;;;;;;;;;4954364;28;20039;-71
2022/10/21 12:36:38;;;;;;;10.05;6.93;;;;;;;;;;4954058;28;20047;-70
2022/10/21 12:39:08;;;;;;;11.18;6.35;;;;;;;;;;4941040;28;20051;-70
2022/10/21 12:41:37;;;;;;;15.48;6.72;;;;;;;;;;4953887;29;20042;-66
2022/10/21 12:44:05;;;;;;;10.40;6.45;;;;;;;;;;4953574;29;20170;-68
2022/10/21 12:46:46;;;;;;;8.65;6.07;;;;;;;;;;4953542;28;20035;-68
2022/10/21 12:49:18;;;;;;;13.40;6.15;;;;;;;;;;4954016;28;20482;-70
2022/10/21 12:51:51;;;;;;;;;;;;;;;;;;4953926;29;20043;-72
2022/10/21 12:54:22;;;;;;;9.82;5.68;;;;;;;;;;4954101;29;19918;-68
2022/10/21 12:56:51;;;;;;;11.48;5.85;;;;;;;;;;4954066;29;20047;-70
2022/10/21 12:59:31;;;;;;;11.07;5.65;;;;;;;;;;4954110;28;20582;-69
2022/10/21 13:02:08;;;;;;;12.75;6.22;;;;;;;;;;4954304;28;20035;-69
2022/10/21 13:04:34;;;;;;;13.77;5.78;;;;;;;;;;4953936;28;20085;-74
2022/10/21 13:07:18;;;;;;;9.52;5.25;;;;;;;;;;4953522;29;20047;-70
2022/10/21 13:09:49;;;;;;;8.98;5.97;;;;;;;;;;4953865;29;20070;-71
2022/10/21 13:12:27;;;;;;;11.93;6.03;;;;;;;;;;4954267;29;20032;-69
2022/10/21 13:15:21;;;;;;;9.38;5.00;;;;;;;;;;4952478;29;20032;-68
2022/10/21 13:17:50;;;;;;;11.27;5.75;;;;;;;;;;4953622;28;20035;-70
2022/10/21 13:20:19;;;;;;;7.28;4.50;;;;;;;;;;4953599;28;20031;-68
2022/10/21 13:22:47;;;;;;;10.73;4.85;;;;;;;;;;4953407;28;20403;-72
2022/10/21 13:25:19;;;;;;;12.07;4.57;;;;;;;;;;4953636;28;20118;-68
2022/10/21 13:28:01;;;;;;;14.02;5.47;;;;;;;;;;4953560;29;20900;-69
2022/10/21 13:30:32;;;;;;;10.40;4.90;;;;;;;;;;4969708;28;20501;-67
2022/10/21 13:33:01;;;;;;;9.30;4.43;;;;;;;;;;4972967;28;20034;-70
2022/10/21 13:35:35;;;;;;;8.00;4.45;;;;;;;;;;4972960;28;20465;-73
2022/10/21 13:38:17;;;;;;;9.68;4.60;;;;;;;;;;4972684;28;20042;-70
2022/10/21 13:40:52;;;;;;;8.27;4.43;;;;;;;;;;4969994;28;20426;-72
2022/10/21 13:43:27;;;;;;;8.88;4.53;;;;;;;;;;4950296;28;20050;-73
2022/10/21 13:46:05;;;;;;;10.52;4.40;;;;;;;;;;4951774;28;20122;-70
2022/10/21 13:48:37;;;;;;;10.70;4.72;;;;;;;;;;4951666;29;20050;-71
2022/10/21 13:51:31;;;;;;;9.02;4.20;;;;;;;;;;4951859;28;20031;-70
2022/10/21 13:54:02;;;;;;;11.50;4.75;;;;;;;;;;4943149;28;20043;-68
2022/10/21 13:56:33;;;;;;;9.60;4.00;;;;;;;;;;4952042;28;20038;-71
2022/10/21 13:58:59;;;;;;;6.70;3.80;;;;;;;;;;4951809;28;20040;-73
2022/10/21 14:01:42;;;;;;;9.00;3.58;;;;;;;;;;4951503;28;20027;-69
2022/10/21 14:04:14;;;;;;;11.25;3.88;;;;;;;;;;4954283;29;20118;-69
2022/10/21 14:06:47;;;;;;;8.35;4.20;;;;;;;;;;4954957;29;20044;-70
2022/10/21 14:09:21;;;;;;;7.27;3.93;;;;;;;;;;4956661;28;20174;-73
2022/10/21 14:11:50;;;;;;;8.52;3.97;;;;;;;;;;4956714;29;20478;-75
2022/10/21 14:14:20;;;;;;;13.95;4.10;;;;;;;;;;4956668;29;20046;-69
2022/10/21 14:16:53;;;;;;;6.68;3.90;;;;;;;;;;4956924;28;20378;-74
2022/10/21 14:19:27;;;;;;;9.20;4.07;;;;;;;;;;4955939;28;20039;-76
2022/10/21 14:21:56;;;;;;;8.35;3.85;;;;;;;;;;4955153;28;20478;-72
2022/10/21 14:24:27;;;;;;;12.35;4.55;;;;;;;;;;4956408;28;20226;-71
2022/10/21 14:26:55;;;;;;;7.05;3.58;;;;;;;;;;4970870;28;20070;-72
2022/10/21 14:29:24;;;;;;;7.78;3.50;;;;;;;;;;4956191;28;20455;-73
2022/10/21 14:31:50;;;;;;;8.77;3.42;;;;;;;;;;4955756;29;20058;-68
2022/10/21 14:34:28;;;;;;;10.20;3.25;;;;;;;;;;4956268;28;20115;-72
2022/10/21 14:37:09;;;;;;;5.63;3.35;;;;;;;;;;4954962;28;20039;-70
2022/10/21 14:39:36;;;;;;;10.18;3.53;;;;;;;;;;4952615;29;20195;-70
2022/10/21 14:42:13;;;;;;;9.80;4.03;;;;;;;;;;4946394;29;20047;-70
2022/10/21 14:44:42;;;;;;;7.10;3.60;;;;;;;;;;4936690;29;20084;-70
2022/10/21 14:47:26;;;;;;;7.95;3.63;;;;;;;;;;4936529;29;20056;-70
2022/10/21 14:49:55;;;;;;;12.02;4.18;;;;;;;;;;4936673;29;20040;-73